createdAt,value
2022-12-12T00:00:56.577Z,25.17
2022-12-12T00:03:27.655Z,29.80
2022-12-12T00:05:56.214Z,29.07
2022-12-12T00:08:25.237Z,28.57
2022-12-12T00:10:52.956Z,29.63
2022-12-12T00:13:20.627Z,27.27
2022-12-12T00:15:48.277Z,27.30
2022-12-12T00:18:15.969Z,28.60
2022-12-12T00:20:43.617Z,28.43
2022-12-12T00:23:11.269Z,28.13
2022-12-12T00:25:40.369Z,31.43
2022-12-12T00:28:08.061Z,27.47
2022-12-12T00:30:35.773Z,28.40
2022-12-12T00:33:03.485Z,36.23
2022-12-12T00:35:31.196Z,31.20
2022-12-12T00:37:59.482Z,28.73
2022-12-12T00:40:27.147Z,30.50
2022-12-12T00:42:56.290Z,29.13
2022-12-12T00:45:23.993Z,31.47
2022-12-12T00:47:51.696Z,35.00
2022-12-12T00:50:19.531Z,30.53
2022-12-12T00:52:47.132Z,32.63
2022-12-12T00:55:15.226Z,36.03
2022-12-12T00:57:43.118Z,31.73
2022-12-12T01:00:15.586Z,34.23
2022-12-12T01:02:43.431Z,34.90
2022-12-12T01:05:12.115Z,33.83
2022-12-12T01:07:40.067Z,36.27
2022-12-12T01:10:09.798Z,30.17
2022-12-12T01:12:37.553Z,35.47
2022-12-12T01:15:07.772Z,28.80
2022-12-12T01:17:37.946Z,31.27
2022-12-12T01:20:07.110Z,31.07
2022-12-12T01:22:34.893Z,35.87
2022-12-12T01:25:02.675Z,33.90
2022-12-12T01:27:30.715Z,33.70
2022-12-12T01:30:01.820Z,37.10
2022-12-12T01:32:29.458Z,36.67
2022-12-12T01:34:58.512Z,34.50
2022-12-12T01:37:26.501Z,37.47
2022-12-12T01:39:54.294Z,33.30
2022-12-12T01:42:21.977Z,31.30
2022-12-12T01:44:51.355Z,33.47
2022-12-12T01:47:20.567Z,36.57
2022-12-12T01:49:51.228Z,33.90
2022-12-12T01:52:23.230Z,31.23
2022-12-12T01:54:52.555Z,34.53
2022-12-12T01:57:28.088Z,35.30
2022-12-12T01:59:55.767Z,32.67
2022-12-12T02:02:23.440Z,32.93
2022-12-12T02:04:51.641Z,35.90
2022-12-12T02:07:20.598Z,34.10
2022-12-12T02:09:48.881Z,35.63
2022-12-12T02:12:16.635Z,35.87
2022-12-12T02:14:47.666Z,35.87
2022-12-12T02:17:33.569Z,33.53
2022-12-12T02:20:37.982Z,34.23
2022-12-12T02:23:41.617Z,35.53
2022-12-12T02:26:47.427Z,37.73
2022-12-12T02:29:40.364Z,32.30
2022-12-12T02:32:13.663Z,35.30
2022-12-12T02:34:46.210Z,34.37
2022-12-12T02:37:18.905Z,32.87
2022-12-12T02:39:49.256Z,31.90
2022-12-12T02:42:23.327Z,37.03
2022-12-12T02:44:56.418Z,38.90
2022-12-12T02:47:27.909Z,39.13
2022-12-12T02:49:58.395Z,39.17
2022-12-12T02:52:26.321Z,44.00
2022-12-12T02:54:54.005Z,39.93
2022-12-12T02:57:23.093Z,39.63
2022-12-12T02:59:53.445Z,37.43
2022-12-12T03:02:40.130Z,36.60
2022-12-12T03:05:41.885Z,35.40
2022-12-12T03:08:18.269Z,39.03
2022-12-12T03:10:51.732Z,31.67
2022-12-12T03:13:26.628Z,38.50
2022-12-12T03:15:59.666Z,39.47
2022-12-12T03:18:32.701Z,33.63
2022-12-12T03:21:04.208Z,46.53
2022-12-12T03:23:35.895Z,36.57
2022-12-12T03:26:05.519Z,36.83
2022-12-12T03:28:39.156Z,40.83
2022-12-12T03:31:10.016Z,46.53
2022-12-12T03:33:42.981Z,40.80
2022-12-12T03:36:14.394Z,38.60
2022-12-12T03:38:44.541Z,48.13
2022-12-12T03:41:15.812Z,37.80
2022-12-12T03:43:47.706Z,41.17
2022-12-12T03:46:18.285Z,39.87
2022-12-12T03:48:50.008Z,36.33
2022-12-12T03:51:20.250Z,34.17
2022-12-12T03:53:50.682Z,36.70
2022-12-12T03:56:20.952Z,36.37
2022-12-12T03:58:51.174Z,34.60
2022-12-12T04:01:20.635Z,39.97
2022-12-12T04:03:53.263Z,39.53
2022-12-12T04:06:28.911Z,39.63
2022-12-12T04:09:16.253Z,36.97
2022-12-12T04:12:05.908Z,36.30
2022-12-12T04:14:55.676Z,40.13
2022-12-12T04:17:30.408Z,36.57
2022-12-12T04:20:20.321Z,34.07
2022-12-12T04:23:10.057Z,45.63
2022-12-12T04:26:01.585Z,45.37
2022-12-12T04:28:30.198Z,39.53
2022-12-12T04:31:02.367Z,38.03
2022-12-12T04:33:31.549Z,38.17
2022-12-12T04:36:01.422Z,37.67
2022-12-12T04:38:29.737Z,40.40
2022-12-12T04:40:59.259Z,38.93
2022-12-12T04:43:31.509Z,38.33
2022-12-12T04:46:01.778Z,44.60
2022-12-12T04:48:37.020Z,38.97
2022-12-12T04:51:08.386Z,47.07
2022-12-12T04:53:39.789Z,39.97
2022-12-12T04:56:09.681Z,47.60
2022-12-12T04:58:37.861Z,42.37
2022-12-12T05:01:09.046Z,47.23
2022-12-12T05:03:42.735Z,43.57
2022-12-12T05:06:13.688Z,43.07
2022-12-12T05:08:43.335Z,38.63
2022-12-12T05:11:12.486Z,42.33
2022-12-12T05:13:42.864Z,39.90
2022-12-12T05:16:15.930Z,40.20
2022-12-12T05:18:43.648Z,39.43
2022-12-12T05:21:13.163Z,39.70
2022-12-12T05:23:40.795Z,40.50
2022-12-12T05:26:08.912Z,44.90
2022-12-12T05:28:37.428Z,50.00
2022-12-12T05:31:05.522Z,42.27
2022-12-12T05:33:33.288Z,44.60
2022-12-12T05:36:00.867Z,40.57
2022-12-12T05:38:29.821Z,42.47
2022-12-12T05:40:57.525Z,45.47
2022-12-12T05:43:26.069Z,41.67
2022-12-12T05:45:53.922Z,42.33
2022-12-12T05:48:24.502Z,46.33
2022-12-12T05:50:53.039Z,43.83
2022-12-12T05:53:21.246Z,47.27
2022-12-12T05:55:51.980Z,45.77
2022-12-12T05:58:20.583Z,40.53
2022-12-12T06:00:49.116Z,45.07
2022-12-12T06:03:17.262Z,44.27
2022-12-12T06:05:45.029Z,38.30
2022-12-12T06:08:16.693Z,40.70
2022-12-12T06:10:46.502Z,44.33
2022-12-12T06:13:15.512Z,47.67
2022-12-12T06:15:43.279Z,44.63
2022-12-12T06:18:12.280Z,45.97
2022-12-12T06:20:40.052Z,42.70
2022-12-12T06:23:07.704Z,46.50
2022-12-12T06:25:35.316Z,44.50
2022-12-12T06:28:03.006Z,42.37
2022-12-12T06:30:32.576Z,39.90
2022-12-12T06:33:00.622Z,44.73
2022-12-12T06:35:28.336Z,47.30
2022-12-12T06:37:58.239Z,52.93
2022-12-12T06:40:26.610Z,54.73
2022-12-12T06:42:55.197Z,45.33
2022-12-12T06:45:23.101Z,60.93
2022-12-12T06:47:53.354Z,56.13
2022-12-12T06:50:23.886Z,48.30
2022-12-12T06:52:51.680Z,47.63
2022-12-12T06:55:19.556Z,52.17
2022-12-12T06:57:47.369Z,53.73
2022-12-12T07:00:16.363Z,62.40
2022-12-12T07:02:44.013Z,79.07
2022-12-12T07:05:13.143Z,62.50
2022-12-12T07:07:40.939Z,55.07
2022-12-12T07:10:09.435Z,61.80
2022-12-12T07:12:37.097Z,60.10
2022-12-12T07:15:05.140Z,60.90
2022-12-12T07:17:32.805Z,56.00
2022-12-12T07:20:00.454Z,49.77
2022-12-12T07:22:29.966Z,50.10
2022-12-12T07:24:57.549Z,47.63
2022-12-12T07:27:25.182Z,59.83
2022-12-12T07:29:52.811Z,53.37
2022-12-12T07:32:20.430Z,54.67
2022-12-12T07:34:47.989Z,48.10
2022-12-12T07:37:15.606Z,45.43
2022-12-12T07:39:44.595Z,45.60
2022-12-12T07:42:12.226Z,50.67
2022-12-12T07:44:40.349Z,49.20
2022-12-12T07:47:08.114Z,46.73
2022-12-12T07:49:35.803Z,57.53
2022-12-12T07:52:03.662Z,56.27
2022-12-12T07:54:31.291Z,56.90
2022-12-12T07:57:01.119Z,57.10
2022-12-12T07:59:28.811Z,54.47
2022-12-12T08:01:56.527Z,52.37
2022-12-12T08:04:24.235Z,49.80
2022-12-12T08:06:58.353Z,48.17
2022-12-12T08:09:29.652Z,52.10
2022-12-12T08:11:58.390Z,50.90
2022-12-12T08:14:27.680Z,50.83
2022-12-12T08:16:55.482Z,54.70
2022-12-12T08:19:23.231Z,43.50
2022-12-12T08:21:51.010Z,58.47
2022-12-12T08:24:18.788Z,45.20
2022-12-12T08:26:46.759Z,44.10
2022-12-12T08:29:14.566Z,49.17
2022-12-12T08:31:44.705Z,49.73
2022-12-12T08:34:12.313Z,45.90
2022-12-12T08:36:40.011Z,51.20
2022-12-12T08:39:09.511Z,51.33
2022-12-12T08:41:39.469Z,51.03
2022-12-12T08:44:07.077Z,56.63
2022-12-12T08:46:34.786Z,52.60
2022-12-12T08:49:03.854Z,48.40
2022-12-12T08:51:31.574Z,45.37
2022-12-12T08:53:59.177Z,49.47
2022-12-12T08:56:26.970Z,53.80
2022-12-12T08:58:54.581Z,51.47
2022-12-12T09:01:24.587Z,54.43
2022-12-12T09:03:53.125Z,45.13
2022-12-12T09:06:22.289Z,45.73
2022-12-12T09:08:50.067Z,51.20
2022-12-12T09:11:18.281Z,49.87
2022-12-12T09:13:46.041Z,53.13
2022-12-12T09:16:13.730Z,47.60
2022-12-12T09:18:48.105Z,46.87
2022-12-12T09:21:16.704Z,54.00
2022-12-12T09:23:46.124Z,53.33
2022-12-12T09:26:14.405Z,45.67
2022-12-12T09:28:42.504Z,51.00
2022-12-12T09:31:11.959Z,41.07
2022-12-12T09:33:40.300Z,51.60
2022-12-12T09:36:09.464Z,45.20
2022-12-12T09:38:37.459Z,48.20
2022-12-12T09:41:13.032Z,48.83
2022-12-12T09:43:49.614Z,50.33
2022-12-12T09:46:26.328Z,57.57
2022-12-12T09:48:58.139Z,68.33
2022-12-12T09:51:26.076Z,51.30
2022-12-12T09:53:53.737Z,55.47
2022-12-12T09:56:26.103Z,53.77
2022-12-12T09:58:59.982Z,41.93
2022-12-12T10:01:32.619Z,48.00
2022-12-12T10:04:07.696Z,46.37
2022-12-12T10:06:39.778Z,43.77
2022-12-12T10:09:28.416Z,42.10
2022-12-12T10:11:59.285Z,40.30
2022-12-12T10:14:34.526Z,43.77
2022-12-12T10:17:03.985Z,36.67
2022-12-12T10:19:34.133Z,40.80
2022-12-12T10:22:05.788Z,36.63
2022-12-12T10:24:38.161Z,41.43
2022-12-12T10:27:12.182Z,42.90
2022-12-12T10:29:42.680Z,39.57
2022-12-12T10:32:19.503Z,40.47
2022-12-12T10:34:57.218Z,37.00
2022-12-12T10:37:36.354Z,35.63
2022-12-12T10:40:14.324Z,43.13
2022-12-12T10:42:47.670Z,40.47
2022-12-12T10:45:33.252Z,38.87
2022-12-12T10:48:01.583Z,45.43
2022-12-12T10:50:34.612Z,42.00
2022-12-12T10:53:02.940Z,45.60
2022-12-12T10:55:36.971Z,43.93
2022-12-12T10:58:07.006Z,38.03
2022-12-12T11:00:36.579Z,40.13
2022-12-12T11:03:26.889Z,35.73
2022-12-12T11:05:55.204Z,38.13
2022-12-12T11:08:27.830Z,34.87
2022-12-12T11:11:08.546Z,33.90
2022-12-12T11:13:47.827Z,39.93
2022-12-12T11:16:19.104Z,40.23
2022-12-12T11:19:02.247Z,46.77
2022-12-12T11:21:33.006Z,43.53
2022-12-12T11:24:01.807Z,40.33
2022-12-12T11:26:29.988Z,43.07
2022-12-12T11:29:01.307Z,36.77
2022-12-12T11:31:31.488Z,39.13
2022-12-12T11:34:01.101Z,46.60
2022-12-12T11:36:31.992Z,38.60
2022-12-12T11:39:01.408Z,39.00
2022-12-12T11:41:29.367Z,39.37
2022-12-12T11:44:01.386Z,44.77
2022-12-12T11:46:30.875Z,36.90
2022-12-12T11:49:01.058Z,41.63
2022-12-12T11:51:34.650Z,39.97
2022-12-12T11:54:03.628Z,41.87
2022-12-12T11:56:39.987Z,44.50
2022-12-12T11:59:21.137Z,37.03
2022-12-12T12:01:56.258Z,46.83
2022-12-12T12:04:33.395Z,45.80
2022-12-12T12:07:14.737Z,41.17
2022-12-12T12:09:46.501Z,42.20
2022-12-12T12:12:17.324Z,50.03
2022-12-12T12:14:59.519Z,47.13
2022-12-12T12:17:33.304Z,42.73
2022-12-12T12:20:05.686Z,41.13
2022-12-12T12:22:43.362Z,42.07
2022-12-12T12:25:31.710Z,43.83
2022-12-12T12:28:07.897Z,43.70
2022-12-12T12:30:51.940Z,50.03
2022-12-12T12:33:38.018Z,52.73
2022-12-12T12:36:16.305Z,46.00
2022-12-12T12:38:57.670Z,42.27
2022-12-12T12:41:37.565Z,47.60
2022-12-12T12:44:15.624Z,42.23
2022-12-12T12:46:50.935Z,44.13
2022-12-12T12:49:21.985Z,47.97
2022-12-12T12:51:55.826Z,45.33
2022-12-12T12:54:25.979Z,46.93
2022-12-12T12:56:57.631Z,43.27
2022-12-12T12:59:31.065Z,46.20
2022-12-12T13:02:03.707Z,44.97
2022-12-12T13:04:35.339Z,42.93
2022-12-12T13:07:08.021Z,40.73
2022-12-12T13:09:39.518Z,39.00
2022-12-12T13:12:17.196Z,29.73
2022-12-12T13:14:47.224Z,34.07
2022-12-12T13:17:19.596Z,35.63
2022-12-12T13:19:48.920Z,46.20
2022-12-12T13:22:20.588Z,41.77
2022-12-12T13:24:59.430Z,32.13
2022-12-12T13:27:32.748Z,35.30
2022-12-12T13:30:03.448Z,33.17
2022-12-12T13:33:05.978Z,35.17
2022-12-12T13:35:36.124Z,43.00
2022-12-12T13:38:04.178Z,34.90
2022-12-12T13:40:39.735Z,31.80
2022-12-12T13:43:10.502Z,37.40
2022-12-12T13:45:43.816Z,38.70
2022-12-12T13:48:35.166Z,36.47
2022-12-12T13:51:40.783Z,38.27
2022-12-12T13:54:51.332Z,35.17
2022-12-12T13:57:31.331Z,41.10
2022-12-12T14:00:23.097Z,39.90
2022-12-12T14:03:01.715Z,37.60
2022-12-12T14:05:34.238Z,42.60
2022-12-12T14:08:05.816Z,51.47
2022-12-12T14:10:36.362Z,49.43
2022-12-12T14:13:18.055Z,37.23
2022-12-12T14:15:46.413Z,37.57
2022-12-12T14:18:24.702Z,46.87
2022-12-12T14:21:00.441Z,47.67
2022-12-12T14:23:30.481Z,39.90
2022-12-12T14:25:59.778Z,41.97
2022-12-12T14:28:28.384Z,36.97
2022-12-12T14:31:04.437Z,42.60
2022-12-12T14:34:01.404Z,37.80
2022-12-12T14:37:04.696Z,43.03
2022-12-12T14:39:51.214Z,41.10
2022-12-12T14:43:21.349Z,42.50
2022-12-12T14:45:30.468Z,45.27
2022-12-12T14:48:26.458Z,49.30
2022-12-12T14:50:57.551Z,43.73
2022-12-12T14:53:27.036Z,40.00
2022-12-12T14:55:58.551Z,44.97
2022-12-12T14:58:28.526Z,41.37
2022-12-12T15:00:58.562Z,46.63
2022-12-12T15:03:29.872Z,48.30
2022-12-12T15:06:28.576Z,50.83
2022-12-12T15:08:57.738Z,46.57
2022-12-12T15:11:29.032Z,51.97
2022-12-12T15:13:58.515Z,52.70
2022-12-12T15:16:29.398Z,48.53
2022-12-12T15:18:58.379Z,46.70
2022-12-12T15:21:26.166Z,48.50
2022-12-12T15:23:53.890Z,51.13
2022-12-12T15:26:23.976Z,55.27
2022-12-12T15:28:53.327Z,45.40
2022-12-12T15:31:21.464Z,47.27
2022-12-12T15:33:50.235Z,53.17
2022-12-12T15:36:24.556Z,49.53
2022-12-12T15:39:22.388Z,55.90
2022-12-12T15:41:50.464Z,61.50
2022-12-12T15:44:21.248Z,56.97
2022-12-12T15:46:50.424Z,50.30
2022-12-12T15:49:40.302Z,52.10
2022-12-12T15:52:12.936Z,43.60
2022-12-12T15:54:47.184Z,51.03
2022-12-12T15:57:17.228Z,50.33
2022-12-12T15:59:46.774Z,50.63
2022-12-12T16:02:29.067Z,56.93
2022-12-12T16:05:00.418Z,51.87
2022-12-12T16:07:28.200Z,48.50
2022-12-12T16:10:03.346Z,53.53
2022-12-12T16:12:56.442Z,56.10
2022-12-12T16:15:31.606Z,53.60
2022-12-12T16:18:04.910Z,45.20
2022-12-12T16:20:34.073Z,56.90
2022-12-12T16:23:20.030Z,60.83
2022-12-12T16:25:49.222Z,48.57
2022-12-12T16:28:25.612Z,59.77
2022-12-12T16:30:57.493Z,49.27
2022-12-12T16:33:28.402Z,52.17
2022-12-12T16:35:56.337Z,58.33
2022-12-12T16:38:24.206Z,68.40
2022-12-12T16:40:54.344Z,55.83
2022-12-12T16:43:23.653Z,51.73
2022-12-12T16:45:52.686Z,58.93
2022-12-12T16:48:23.510Z,48.60
2022-12-12T16:50:53.058Z,48.77
2022-12-12T16:53:21.551Z,53.70
2022-12-12T16:55:51.517Z,56.03
2022-12-12T16:58:21.195Z,52.60
2022-12-12T17:00:49.880Z,55.40
2022-12-12T17:03:18.356Z,51.27
2022-12-12T17:05:48.674Z,59.17
2022-12-12T17:08:17.222Z,52.13
2022-12-12T17:10:45.796Z,63.87
2022-12-12T17:13:16.635Z,61.43
2022-12-12T17:15:44.489Z,52.63
2022-12-12T17:18:12.351Z,49.20
2022-12-12T17:20:40.537Z,56.43
2022-12-12T17:23:28.138Z,60.00
2022-12-12T17:26:02.454Z,53.53
2022-12-12T17:28:32.050Z,56.33
2022-12-12T17:30:59.809Z,59.27
2022-12-12T17:33:27.672Z,49.10
2022-12-12T17:36:00.153Z,55.33
2022-12-12T17:38:30.410Z,62.53
2022-12-12T17:40:58.770Z,54.50
2022-12-12T17:43:27.123Z,57.27
2022-12-12T17:45:59.587Z,57.30
2022-12-12T17:48:28.874Z,57.40
2022-12-12T17:50:58.121Z,65.30
2022-12-12T17:53:26.000Z,55.20
2022-12-12T17:56:01.205Z,52.57
2022-12-12T17:58:35.115Z,54.33
2022-12-12T18:01:10.267Z,56.03
2022-12-12T18:03:38.269Z,50.83
2022-12-12T18:06:06.324Z,67.23
2022-12-12T18:08:34.007Z,55.10
2022-12-12T18:11:03.165Z,62.27
2022-12-12T18:13:30.770Z,64.83
2022-12-12T18:15:59.292Z,57.07
2022-12-12T18:18:28.398Z,61.30
2022-12-12T18:20:56.599Z,53.10
2022-12-12T18:23:24.315Z,57.13
2022-12-12T18:25:51.888Z,53.07
2022-12-12T18:28:20.942Z,70.07
2022-12-12T18:30:50.220Z,59.50
2022-12-12T18:33:17.910Z,54.90
2022-12-12T18:35:45.733Z,53.13
2022-12-12T18:38:13.441Z,59.03
2022-12-12T18:40:41.149Z,62.87
2022-12-12T18:43:09.226Z,80.30
2022-12-12T18:45:39.019Z,60.93
2022-12-12T18:48:06.996Z,63.30
2022-12-12T18:50:34.795Z,65.60
2022-12-12T18:53:02.487Z,48.83
2022-12-12T18:55:31.239Z,58.13
2022-12-12T18:57:58.949Z,60.57
2022-12-12T19:00:26.591Z,52.80
2022-12-12T19:02:55.604Z,62.33
2022-12-12T19:05:23.309Z,62.33
2022-12-12T19:07:51.100Z,73.67
2022-12-12T19:10:19.037Z,73.50
2022-12-12T19:12:46.911Z,64.77
2022-12-12T19:15:17.103Z,67.70
2022-12-12T19:17:45.205Z,65.33
2022-12-12T19:20:14.532Z,75.07
2022-12-12T19:22:46.614Z,65.13
2022-12-12T19:25:15.074Z,66.77
2022-12-12T19:27:43.016Z,66.40
2022-12-12T19:30:12.415Z,59.93
2022-12-12T19:32:40.477Z,66.93
2022-12-12T19:35:08.983Z,57.37
2022-12-12T19:37:38.197Z,66.80
2022-12-12T19:40:06.876Z,72.97
2022-12-12T19:42:34.586Z,68.97
2022-12-12T19:45:04.390Z,65.27
2022-12-12T19:47:33.402Z,75.70
2022-12-12T19:50:01.283Z,86.63
2022-12-12T19:52:32.169Z,72.30
2022-12-12T19:55:01.325Z,73.20
2022-12-12T19:57:29.021Z,73.10
2022-12-12T19:59:56.738Z,75.77
2022-12-12T20:02:24.594Z,69.90
2022-12-12T20:04:52.420Z,75.67
2022-12-12T20:07:20.222Z,84.80
2022-12-12T20:09:47.935Z,85.70
2022-12-12T20:12:16.964Z,81.50
2022-12-12T20:14:44.599Z,76.97
2022-12-12T20:17:12.297Z,75.10
2022-12-12T20:19:39.982Z,86.17
2022-12-12T20:22:09.242Z,70.20
2022-12-12T20:24:37.523Z,78.33
2022-12-12T20:27:05.627Z,82.70
2022-12-12T20:29:35.821Z,74.50
2022-12-12T20:32:03.831Z,64.77
2022-12-12T20:34:31.844Z,72.23
2022-12-12T20:36:59.492Z,68.83
2022-12-12T20:39:27.292Z,82.07
2022-12-12T20:41:56.615Z,93.23
2022-12-12T20:44:25.679Z,81.80
2022-12-12T20:46:55.012Z,83.43
2022-12-12T20:49:24.683Z,90.67
2022-12-12T20:51:57.654Z,107.10
2022-12-12T20:54:27.765Z,93.60
2022-12-12T20:56:55.759Z,98.77
2022-12-12T20:59:23.857Z,107.90
2022-12-12T21:01:51.945Z,111.03
2022-12-12T21:04:21.492Z,103.73
2022-12-12T21:06:49.865Z,111.20
2022-12-12T21:09:23.724Z,86.97
2022-12-12T21:11:52.339Z,88.03
2022-12-12T21:14:20.068Z,100.90
2022-12-12T21:16:47.766Z,101.13
2022-12-12T21:19:17.274Z,107.63
2022-12-12T21:21:47.336Z,96.20
2022-12-12T21:24:17.721Z,97.70
2022-12-12T21:26:46.273Z,90.80
2022-12-12T21:29:14.110Z,108.17
2022-12-12T21:31:50.286Z,99.40
2022-12-12T21:34:19.595Z,102.63
2022-12-12T21:36:51.232Z,95.00
2022-12-12T21:39:19.078Z,94.67
2022-12-12T21:41:46.947Z,96.87
2022-12-12T21:44:14.983Z,107.00
2022-12-12T21:46:44.170Z,103.93
2022-12-12T21:49:25.984Z,112.77
2022-12-12T21:51:56.437Z,95.43
2022-12-12T21:54:24.459Z,97.07
2022-12-12T21:56:52.856Z,96.33
2022-12-12T21:59:20.498Z,93.90
2022-12-12T22:01:48.324Z,95.50
2022-12-12T22:04:17.333Z,103.67
2022-12-12T22:06:45.782Z,84.97
2022-12-12T22:09:15.120Z,91.10
2022-12-12T22:11:49.777Z,100.40
2022-12-12T22:14:19.650Z,101.43
2022-12-12T22:16:47.369Z,101.83
2022-12-12T22:19:16.061Z,87.67
2022-12-12T22:21:47.248Z,108.03
2022-12-12T22:24:16.573Z,96.40
2022-12-12T22:26:46.023Z,118.87
2022-12-12T22:29:15.108Z,95.17
2022-12-12T22:31:43.203Z,91.13
2022-12-12T22:34:13.506Z,97.40
2022-12-12T22:36:41.394Z,104.57
2022-12-12T22:39:12.022Z,114.37
2022-12-12T22:41:41.008Z,101.27
2022-12-12T22:44:08.976Z,107.17
2022-12-12T22:46:42.133Z,82.47
2022-12-12T22:49:13.213Z,87.70
2022-12-12T22:51:40.874Z,93.63
2022-12-12T22:54:08.593Z,92.90
2022-12-12T22:56:37.588Z,93.33
2022-12-12T22:59:07.175Z,99.70
2022-12-12T23:01:35.317Z,91.87
2022-12-12T23:04:03.082Z,103.47
2022-12-12T23:06:33.235Z,96.77
2022-12-12T23:09:02.527Z,97.30
2022-12-12T23:11:31.702Z,102.00
2022-12-12T23:14:01.041Z,89.10
2022-12-12T23:16:30.983Z,87.80
2022-12-12T23:18:59.908Z,104.33
2022-12-12T23:21:27.799Z,89.00
2022-12-12T23:23:55.940Z,95.73
2022-12-12T23:26:25.412Z,84.97
2022-12-12T23:28:53.428Z,102.90
2022-12-12T23:31:23.418Z,86.70
2022-12-12T23:33:55.268Z,86.67
2022-12-12T23:36:23.189Z,91.17
2022-12-12T23:38:55.459Z,90.70
2022-12-12T23:41:23.420Z,89.20
2022-12-12T23:43:51.860Z,86.83
2022-12-12T23:46:29.320Z,90.47
2022-12-12T23:48:59.741Z,81.83
2022-12-12T23:51:29.414Z,81.33
2022-12-12T23:53:57.557Z,97.17
2022-12-12T23:56:25.386Z,85.63
2022-12-12T23:58:53.425Z,84.07
